Time;durP1;ratioP1;P1;durP2;ratioP2;P2;SDS_P1;SDS_P2;PMS_P1;PMS_P2;Temp;Humidity;BMP_temperature;BMP_pressure;BME280_temperature;BME280_humidity;BME280_pressure;Samples;Min_cycle;Max_cycle;Signal;HPM_P1;HPM_P2
2021/06/19 00:02:19;;;;;;;33.75;11.50;;;;;;;;;;5044594;28;20513;-73
2021/06/19 00:04:45;;;;;;;31.10;11.77;;;;;;;;;;5026522;28;20044;-75
2021/06/19 00:07:10;;;;;;;28.15;11.25;;;;;;;;;;5041940;28;20052;-74
2021/06/19 00:09:39;;;;;;;43.38;12.60;;;;;;;;;;5022712;28;20044;-75
2021/06/19 00:12:05;;;;;;;37.15;12.68;;;;;;;;;;5043191;28;20190;-76
2021/06/19 00:14:30;;;;;;;33.17;12.88;;;;;;;;;;5026237;28;20132;-68
2021/06/19 00:16:56;;;;;;;32.20;12.70;;;;;;;;;;5024914;28;20045;-75
2021/06/19 00:19:22;;;;;;;36.97;12.40;;;;;;;;;;5026292;28;20052;-74
2021/06/19 00:21:48;;;;;;;34.10;12.98;;;;;;;;;;5026367;28;20357;-76
2021/06/19 00:24:22;;;;;;;35.15;13.10;;;;;;;;;;5028050;28;20040;-74
2021/06/19 00:26:48;;;;;;;50.05;14.32;;;;;;;;;;5042092;28;20037;-79
2021/06/19 00:29:14;;;;;;;26.08;13.35;;;;;;;;;;5009298;28;20031;-73
2021/06/19 00:31:40;;;;;;;38.75;14.07;;;;;;;;;;5042110;28;20041;-67
2021/06/19 00:34:06;;;;;;;34.13;15.45;;;;;;;;;;5044836;28;20495;-73
2021/06/19 00:36:31;;;;;;;39.60;14.25;;;;;;;;;;5045673;28;20489;-73
2021/06/19 00:38:57;;;;;;;38.85;14.13;;;;;;;;;;5033913;28;20118;-72
2021/06/19 00:41:23;;;;;;;52.75;15.98;;;;;;;;;;5044959;28;20195;-73
2021/06/19 00:43:49;;;;;;;45.33;14.63;;;;;;;;;;4995235;28;20040;-73
2021/06/19 00:46:15;;;;;;;43.45;13.95;;;;;;;;;;5047645;28;20059;-73
2021/06/19 00:48:40;;;;;;;53.15;14.70;;;;;;;;;;5045781;28;20377;-65
2021/06/19 00:51:09;;;;;;;51.72;15.13;;;;;;;;;;5028654;28;20083;-73
2021/06/19 00:53:34;;;;;;;33.03;14.82;;;;;;;;;;5046832;28;20048;-73
2021/06/19 00:56:00;;;;;;;45.67;16.52;;;;;;;;;;5029492;28;20055;-73
2021/06/19 00:58:26;;;;;;;50.85;14.32;;;;;;;;;;5044963;28;20058;-73
2021/06/19 01:00:53;;;;;;;44.30;14.88;;;;;;;;;;5047593;28;20091;-75
2021/06/19 01:03:18;;;;;;;46.42;14.75;;;;;;;;;;5047287;28;20040;-75
2021/06/19 01:05:45;;;;;;;41.55;13.75;;;;;;;;;;5028465;28;20113;-75
2021/06/19 01:08:10;;;;;;;53.75;15.02;;;;;;;;;;5045240;28;20067;-74
2021/06/19 01:10:36;;;;;;;45.92;15.45;;;;;;;;;;5046062;28;20060;-75
2021/06/19 01:13:01;;;;;;;52.70;15.38;;;;;;;;;;5046829;28;20393;-74
2021/06/19 01:15:28;;;;;;;40.47;15.02;;;;;;;;;;5045476;28;20119;-68
2021/06/19 01:17:54;;;;;;;39.88;14.43;;;;;;;;;;5028742;28;20158;-79
2021/06/19 01:20:21;;;;;;;53.28;15.52;;;;;;;;;;5046246;28;20516;-71
2021/06/19 01:22:48;;;;;;;40.80;15.10;;;;;;;;;;5046393;28;20128;-72
2021/06/19 01:25:18;;;;;;;54.33;15.68;;;;;;;;;;5043453;28;20528;-72
2021/06/19 01:27:44;;;;;;;48.55;15.50;;;;;;;;;;5045664;28;20120;-73
2021/06/19 01:30:10;;;;;;;38.78;13.68;;;;;;;;;;5046182;28;20159;-68
2021/06/19 01:32:37;;;;;;;51.53;15.77;;;;;;;;;;5045063;28;20063;-70
2021/06/19 01:35:03;;;;;;;51.95;14.95;;;;;;;;;;5012586;28;20033;-71
2021/06/19 01:37:29;;;;;;;47.20;17.38;;;;;;;;;;5045626;28;20124;-72
2021/06/19 01:40:06;;;;;;;44.70;15.50;;;;;;;;;;5045260;28;20132;-71
2021/06/19 01:42:31;;;;;;;49.35;14.55;;;;;;;;;;5047039;28;20037;-72
2021/06/19 01:44:57;;;;;;;47.45;15.35;;;;;;;;;;5046040;28;20385;-71
2021/06/19 01:47:23;;;;;;;45.75;13.80;;;;;;;;;;5045014;28;20082;-71
2021/06/19 01:49:48;;;;;;;40.67;15.27;;;;;;;;;;5044113;28;20118;-72
2021/06/19 01:52:14;;;;;;;41.75;15.27;;;;;;;;;;5028750;28;20072;-69
2021/06/19 01:54:39;;;;;;;40.78;14.45;;;;;;;;;;5035919;28;20071;-65
2021/06/19 01:57:06;;;;;;;49.03;16.92;;;;;;;;;;5047309;28;20493;-70
2021/06/19 01:59:32;;;;;;;48.03;14.98;;;;;;;;;;5026593;28;20523;-74
2021/06/19 02:01:59;;;;;;;52.00;15.25;;;;;;;;;;5046041;28;20133;-70
2021/06/19 02:04:25;;;;;;;45.00;15.30;;;;;;;;;;5019397;28;20162;-74
2021/06/19 02:06:51;;;;;;;54.15;15.52;;;;;;;;;;5020557;28;20075;-74
2021/06/19 02:09:16;;;;;;;41.90;16.13;;;;;;;;;;5042261;28;20047;-75
2021/06/19 02:11:42;;;;;;;40.92;15.77;;;;;;;;;;5033000;28;20468;-72
2021/06/19 02:14:08;;;;;;;50.80;15.35;;;;;;;;;;5039913;28;20041;-80
2021/06/19 02:16:33;;;;;;;39.05;16.95;;;;;;;;;;5024838;28;20044;-80
2021/06/19 02:18:59;;;;;;;53.05;17.52;;;;;;;;;;5021023;28;20029;-75
2021/06/19 02:21:25;;;;;;;53.33;16.23;;;;;;;;;;5036413;28;20132;-74
2021/06/19 02:23:50;;;;;;;31.95;15.38;;;;;;;;;;5037040;28;20120;-73
2021/06/19 02:26:16;;;;;;;42.88;16.90;;;;;;;;;;5035034;28;20045;-78
2021/06/19 02:28:41;;;;;;;53.50;16.90;;;;;;;;;;5018870;28;20394;-77
2021/06/19 02:31:07;;;;;;;56.22;19.02;;;;;;;;;;5018634;28;20501;-74
2021/06/19 02:33:36;;;;;;;52.90;17.05;;;;;;;;;;5012841;28;20241;-73
2021/06/19 02:36:01;;;;;;;45.92;16.10;;;;;;;;;;5035847;28;20033;-74
2021/06/19 02:38:27;;;;;;;67.85;17.10;;;;;;;;;;5036342;28;20535;-72
2021/06/19 02:40:53;;;;;;;48.40;16.58;;;;;;;;;;5038872;28;20079;-72
2021/06/19 02:43:19;;;;;;;45.65;17.63;;;;;;;;;;5038391;28;20040;-70
2021/06/19 02:45:45;;;;;;;44.38;17.33;;;;;;;;;;5017524;28;20437;-72
2021/06/19 02:48:11;;;;;;;46.55;18.00;;;;;;;;;;5036961;28;20029;-73
2021/06/19 02:50:38;;;;;;;45.45;17.63;;;;;;;;;;5036250;28;20057;-67
2021/06/19 02:53:04;;;;;;;48.13;17.98;;;;;;;;;;5017480;28;20032;-74
2021/06/19 02:55:32;;;;;;;60.63;16.98;;;;;;;;;;5038258;28;20075;-71
2021/06/19 02:57:58;;;;;;;50.42;18.00;;;;;;;;;;5022457;28;20493;-73
2021/06/19 03:00:23;;;;;;;59.95;17.60;;;;;;;;;;5035162;28;20032;-73
2021/06/19 03:02:49;;;;;;;46.97;17.08;;;;;;;;;;5037504;28;20048;-75
2021/06/19 03:05:17;;;;;;;42.30;17.48;;;;;;;;;;5032147;28;20037;-75
2021/06/19 03:07:42;;;;;;;51.28;17.15;;;;;;;;;;5035104;28;20040;-68
2021/06/19 03:10:12;;;;;;;32.40;16.38;;;;;;;;;;5034067;28;20025;-73
2021/06/19 03:12:38;;;;;;;46.00;16.92;;;;;;;;;;5044725;28;20429;-75
2021/06/19 03:15:05;;;;;;;47.83;16.73;;;;;;;;;;5044462;28;20147;-77
2021/06/19 03:17:31;;;;;;;51.53;17.50;;;;;;;;;;5007938;28;20060;-76
2021/06/19 03:19:57;;;;;;;47.33;16.50;;;;;;;;;;5009957;28;20032;-76
2021/06/19 03:22:22;;;;;;;47.13;17.50;;;;;;;;;;5007689;28;20420;-75
2021/06/19 03:24:49;;;;;;;51.25;17.77;;;;;;;;;;5049384;28;20041;-66
2021/06/19 03:27:16;;;;;;;50.47;17.42;;;;;;;;;;5029220;28;20663;-71
2021/06/19 03:29:43;;;;;;;39.85;16.80;;;;;;;;;;5042222;28;20044;-72
2021/06/19 03:32:09;;;;;;;45.85;14.95;;;;;;;;;;5044460;28;20025;-70
2021/06/19 03:34:37;;;;;;;34.67;14.60;;;;;;;;;;5005971;28;20247;-71
2021/06/19 03:37:03;;;;;;;55.55;15.40;;;;;;;;;;5009975;28;20048;-74
2021/06/19 03:39:29;;;;;;;48.63;15.98;;;;;;;;;;5042978;28;20045;-71
2021/06/19 03:41:56;;;;;;;47.92;15.55;;;;;;;;;;5021349;28;20095;-73
2021/06/19 03:44:22;;;;;;;41.55;15.82;;;;;;;;;;5024918;28;20448;-72
2021/06/19 03:46:48;;;;;;;38.35;13.80;;;;;;;;;;5042853;28;20037;-72
2021/06/19 03:49:14;;;;;;;38.35;14.40;;;;;;;;;;5041278;28;20037;-69
2021/06/19 03:51:40;;;;;;;30.95;12.70;;;;;;;;;;5042257;28;20048;-68
2021/06/19 03:54:06;;;;;;;39.15;12.57;;;;;;;;;;5044418;28;20413;-73
2021/06/19 03:56:32;;;;;;;36.35;12.50;;;;;;;;;;5008874;28;20068;-71
2021/06/19 03:58:58;;;;;;;37.30;12.23;;;;;;;;;;5044035;28;20033;-71
2021/06/19 04:01:23;;;;;;;33.88;12.25;;;;;;;;;;5024337;28;20033;-71
2021/06/19 04:03:49;;;;;;;30.35;11.90;;;;;;;;;;5043070;28;20040;-73
2021/06/19 04:06:14;;;;;;;32.38;12.68;;;;;;;;;;5043187;28;20045;-70
2021/06/19 04:08:40;;;;;;;34.63;12.80;;;;;;;;;;5041720;28;20033;-68
2021/06/19 04:11:06;;;;;;;39.45;12.38;;;;;;;;;;5029962;28;20422;-70
2021/06/19 04:13:32;;;;;;;33.42;14.82;;;;;;;;;;5047524;28;20095;-71
2021/06/19 04:15:57;;;;;;;45.70;14.73;;;;;;;;;;5047200;28;20041;-72
2021/06/19 04:18:23;;;;;;;55.28;22.60;;;;;;;;;;5027120;28;20071;-72
2021/06/19 04:20:48;;;;;;;35.35;13.52;;;;;;;;;;5046020;28;20095;-72
2021/06/19 04:23:14;;;;;;;27.70;13.15;;;;;;;;;;5048110;28;20033;-72
2021/06/19 04:25:39;;;;;;;28.48;12.40;;;;;;;;;;5052375;28;20048;-71
2021/06/19 04:28:05;;;;;;;32.67;13.98;;;;;;;;;;5044617;28;20116;-70
2021/06/19 04:30:31;;;;;;;33.03;13.93;;;;;;;;;;5045823;28;20037;-72
2021/06/19 04:32:57;;;;;;;40.05;14.00;;;;;;;;;;5028747;28;20041;-73
2021/06/19 04:35:23;;;;;;;35.53;13.38;;;;;;;;;;5043972;28;20090;-69
2021/06/19 04:37:49;;;;;;;40.08;13.18;;;;;;;;;;5027178;28;20082;-69
2021/06/19 04:40:20;;;;;;;35.40;12.95;;;;;;;;;;5044381;28;20053;-70
2021/06/19 04:42:57;;;;;;;41.13;15.13;;;;;;;;;;5046004;28;20045;-85
2021/06/19 04:45:23;;;;;;;36.45;12.88;;;;;;;;;;5028741;28;20040;-78
2021/06/19 04:47:48;;;;;;;31.52;13.90;;;;;;;;;;5028154;28;20029;-78
2021/06/19 04:50:15;;;;;;;34.08;13.15;;;;;;;;;;5027888;28;20421;-80
2021/06/19 04:52:42;;;;;;;39.08;12.63;;;;;;;;;;5011641;28;20033;-71
2021/06/19 04:55:12;;;;;;;33.17;12.23;;;;;;;;;;5045723;28;20090;-75
2021/06/19 04:57:40;;;;;;;30.13;11.85;;;;;;;;;;5046506;28;20036;-71
2021/06/19 05:00:06;;;;;;;30.00;12.32;;;;;;;;;;5024399;28;20597;-74
2021/06/19 05:02:32;;;;;;;34.72;11.77;;;;;;;;;;5026996;28;20032;-72
2021/06/19 05:04:57;;;;;;;28.17;11.20;;;;;;;;;;5027922;28;20390;-71
2021/06/19 05:07:23;;;;;;;28.67;11.10;;;;;;;;;;5027669;28;20094;-71
2021/06/19 05:09:48;;;;;;;28.73;10.85;;;;;;;;;;5042684;28;20037;-69
2021/06/19 05:12:14;;;;;;;29.90;11.00;;;;;;;;;;5044659;28;20040;-71
2021/06/19 05:14:40;;;;;;;25.65;8.65;;;;;;;;;;5046412;28;20175;-72
2021/06/19 05:17:05;;;;;;;19.35;8.45;;;;;;;;;;5027284;28;20125;-67
2021/06/19 05:19:31;;;;;;;23.08;8.00;;;;;;;;;;5046226;28;20116;-73
2021/06/19 05:21:57;;;;;;;19.77;7.22;;;;;;;;;;5011520;28;20126;-72
2021/06/19 05:24:23;;;;;;;17.65;7.82;;;;;;;;;;5044818;28;20513;-71
2021/06/19 05:26:48;;;;;;;20.90;8.23;;;;;;;;;;5040497;28;20041;-73
2021/06/19 05:29:14;;;;;;;22.90;6.70;;;;;;;;;;5046089;28;20033;-72
2021/06/19 05:31:39;;;;;;;20.40;7.68;;;;;;;;;;5027628;28;20040;-71
2021/06/19 05:34:05;;;;;;;21.52;7.38;;;;;;;;;;5027593;28;20517;-72
2021/06/19 05:36:33;;;;;;;24.90;6.75;;;;;;;;;;5042707;28;20043;-72
2021/06/19 05:38:59;;;;;;;29.10;6.75;;;;;;;;;;5042748;28;20033;-73
2021/06/19 05:41:24;;;;;;;21.40;7.15;;;;;;;;;;5045515;28;20041;-75
2021/06/19 05:43:50;;;;;;;21.83;6.93;;;;;;;;;;5025982;28;20409;-67
2021/06/19 05:46:18;;;;;;;31.70;7.00;;;;;;;;;;5026992;28;20041;-75
2021/06/19 05:48:43;;;;;;;24.08;6.03;;;;;;;;;;5046448;28;20095;-75
2021/06/19 05:51:09;;;;;;;19.77;6.80;;;;;;;;;;5045770;28;20518;-75
2021/06/19 05:53:34;;;;;;;24.00;5.88;;;;;;;;;;5043382;28;20127;-78
2021/06/19 05:56:00;;;;;;;18.58;6.00;;;;;;;;;;5055633;28;20136;-78
2021/06/19 05:58:26;;;;;;;16.25;5.70;;;;;;;;;;5046680;28;20033;-79
2021/06/19 06:00:52;;;;;;;24.63;6.38;;;;;;;;;;5028211;28;20417;-73
2021/06/19 06:03:17;;;;;;;19.80;5.35;;;;;;;;;;5026781;28;20396;-76
2021/06/19 06:05:43;;;;;;;16.90;5.15;;;;;;;;;;5043465;28;20044;-80
2021/06/19 06:08:09;;;;;;;20.70;5.13;;;;;;;;;;5046416;28;20036;-72
2021/06/19 06:10:36;;;;;;;17.52;5.40;;;;;;;;;;5036103;28;20382;-65
2021/06/19 06:13:03;;;;;;;13.25;4.93;;;;;;;;;;5026659;28;20587;-73
2021/06/19 06:15:29;;;;;;;26.77;5.75;;;;;;;;;;5009332;28;20041;-73
2021/06/19 06:17:54;;;;;;;25.02;5.43;;;;;;;;;;5045188;28;20040;-72
2021/06/19 06:20:20;;;;;;;17.40;5.40;;;;;;;;;;5040979;28;20063;-71
2021/06/19 06:22:46;;;;;;;19.20;5.70;;;;;;;;;;5043945;28;20443;-72
2021/06/19 06:25:12;;;;;;;15.35;4.82;;;;;;;;;;5050198;28;20033;-71
2021/06/19 06:27:39;;;;;;;14.65;5.68;;;;;;;;;;5026929;28;20060;-65
2021/06/19 06:30:07;;;;;;;16.77;5.63;;;;;;;;;;5044462;28;20367;-71
2021/06/19 06:32:34;;;;;;;22.67;4.93;;;;;;;;;;5043823;28;20065;-71
2021/06/19 06:35:00;;;;;;;18.05;5.18;;;;;;;;;;5044071;28;20390;-73
2021/06/19 06:37:26;;;;;;;26.50;5.03;;;;;;;;;;5041739;28;20119;-71
2021/06/19 06:39:51;;;;;;;18.33;4.82;;;;;;;;;;5027123;28;20095;-71
2021/06/19 06:42:17;;;;;;;19.65;4.63;;;;;;;;;;5045277;28;20041;-77
2021/06/19 06:44:42;;;;;;;19.88;4.82;;;;;;;;;;5011003;28;20037;-68
2021/06/19 06:47:10;;;;;;;22.17;4.57;;;;;;;;;;5024863;28;20049;-77
2021/06/19 06:49:35;;;;;;;20.02;3.95;;;;;;;;;;5042238;28;20064;-77
2021/06/19 06:52:01;;;;;;;20.55;5.22;;;;;;;;;;5043660;28;20665;-79
2021/06/19 06:54:28;;;;;;;21.92;4.60;;;;;;;;;;5042988;28;20186;-73
2021/06/19 06:56:54;;;;;;;10.25;3.42;;;;;;;;;;5009936;28;20040;-72
2021/06/19 06:59:20;;;;;;;15.10;4.03;;;;;;;;;;5025817;28;20071;-69
2021/06/19 07:01:46;;;;;;;12.57;3.75;;;;;;;;;;5045224;28;20485;-70
2021/06/19 07:04:11;;;;;;;16.42;4.28;;;;;;;;;;4992606;28;20045;-73
2021/06/19 07:06:37;;;;;;;20.13;4.30;;;;;;;;;;5043317;28;20357;-71
2021/06/19 07:09:02;;;;;;;16.67;4.25;;;;;;;;;;5042363;28;20047;-72
2021/06/19 07:11:28;;;;;;;26.55;5.03;;;;;;;;;;5042887;28;20037;-66
2021/06/19 07:13:54;;;;;;;16.85;4.40;;;;;;;;;;5024800;28;20132;-73
2021/06/19 07:16:21;;;;;;;12.70;4.10;;;;;;;;;;5008948;28;20039;-73
2021/06/19 07:18:46;;;;;;;14.07;4.82;;;;;;;;;;5024648;28;20119;-83
2021/06/19 07:21:12;;;;;;;34.22;5.22;;;;;;;;;;5008350;28;20037;-66
2021/06/19 07:23:38;;;;;;;22.42;5.80;;;;;;;;;;5036702;28;20037;-79
2021/06/19 07:26:03;;;;;;;24.13;5.05;;;;;;;;;;5034576;28;20045;-81
2021/06/19 07:28:29;;;;;;;19.45;5.03;;;;;;;;;;5011600;28;20122;-72
2021/06/19 07:30:59;;;;;;;8.48;4.35;;;;;;;;;;5020395;28;20041;-78
2021/06/19 07:33:25;;;;;;;14.25;4.25;;;;;;;;;;5039978;28;20401;-78
2021/06/19 07:35:54;;;;;;;14.55;4.25;;;;;;;;;;5021357;28;20404;-81
2021/06/19 07:38:19;;;;;;;17.33;4.30;;;;;;;;;;5038546;28;20072;-78
2021/06/19 07:40:45;;;;;;;11.48;4.28;;;;;;;;;;5026932;28;20136;-79
2021/06/19 07:43:11;;;;;;;16.05;5.03;;;;;;;;;;5020260;28;20107;-77
2021/06/19 07:45:37;;;;;;;27.80;5.60;;;;;;;;;;5044030;28;20491;-80
2021/06/19 07:48:03;;;;;;;12.60;4.43;;;;;;;;;;5044994;28;20041;-69
2021/06/19 07:50:29;;;;;;;19.02;4.57;;;;;;;;;;5040275;28;20085;-78
2021/06/19 07:52:55;;;;;;;12.05;3.90;;;;;;;;;;5018544;28;20037;-78
2021/06/19 07:55:21;;;;;;;10.50;4.95;;;;;;;;;;5010725;28;20035;-67
2021/06/19 07:57:46;;;;;;;11.00;4.80;;;;;;;;;;5022220;28;20397;-74
2021/06/19 08:00:13;;;;;;;18.35;5.47;;;;;;;;;;5034611;28;20052;-68
2021/06/19 08:02:43;;;;;;;13.90;5.13;;;;;;;;;;5043085;28;20056;-71
2021/06/19 08:05:10;;;;;;;19.58;4.93;;;;;;;;;;5000507;28;20029;-73
2021/06/19 08:07:36;;;;;;;11.88;4.47;;;;;;;;;;5019996;28;20067;-70
2021/06/19 08:10:03;;;;;;;19.77;4.55;;;;;;;;;;5025863;28;20047;-70
2021/06/19 08:12:29;;;;;;;11.55;4.25;;;;;;;;;;5040393;28;20503;-68
2021/06/19 08:14:55;;;;;;;12.60;4.90;;;;;;;;;;5038228;28;20044;-80
2021/06/19 08:17:24;;;;;;;13.40;3.95;;;;;;;;;;5015103;28;20129;-79
2021/06/19 08:19:50;;;;;;;20.65;4.53;;;;;;;;;;5018016;28;20055;-85
2021/06/19 08:22:16;;;;;;;17.23;5.32;;;;;;;;;;5033592;28;20113;-76
2021/06/19 08:24:45;;;;;;;23.40;4.75;;;;;;;;;;5039942;28;20359;-66
2021/06/19 08:27:11;;;;;;;17.67;5.13;;;;;;;;;;5030109;28;20060;-69
2021/06/19 08:29:37;;;;;;;32.65;5.90;;;;;;;;;;5021054;28;20568;-69
2021/06/19 08:32:02;;;;;;;18.13;4.90;;;;;;;;;;5039328;28;20242;-69
2021/06/19 08:34:28;;;;;;;13.45;4.93;;;;;;;;;;5040702;28;20075;-70
2021/06/19 08:36:56;;;;;;;13.30;4.38;;;;;;;;;;5036540;28;20493;-71
2021/06/19 08:39:22;;;;;;;19.17;5.13;;;;;;;;;;5038218;28;20685;-72
2021/06/19 08:41:48;;;;;;;13.23;4.38;;;;;;;;;;5025536;28;20033;-70
2021/06/19 08:44:22;;;;;;;16.98;4.30;;;;;;;;;;5022253;28;20079;-71
2021/06/19 08:46:50;;;;;;;23.10;4.25;;;;;;;;;;5018895;28;20044;-68
2021/06/19 08:49:16;;;;;;;16.52;4.07;;;;;;;;;;5009592;28;20029;-70
2021/06/19 08:51:42;;;;;;;13.00;4.13;;;;;;;;;;5000926;28;20050;-71
2021/06/19 08:54:08;;;;;;;23.92;4.70;;;;;;;;;;5020851;28;20029;-66
2021/06/19 08:56:34;;;;;;;14.35;3.97;;;;;;;;;;5037315;28;20041;-70
2021/06/19 08:59:01;;;;;;;10.43;4.00;;;;;;;;;;5022380;28;20090;-68
2021/06/19 09:01:26;;;;;;;17.80;4.85;;;;;;;;;;5011498;28;20037;-67
2021/06/19 09:03:52;;;;;;;18.75;4.55;;;;;;;;;;5013682;28;20521;-68
2021/06/19 09:06:26;;;;;;;14.75;4.18;;;;;;;;;;5021679;28;20407;-67
2021/06/19 09:09:06;;;;;;;13.40;3.78;;;;;;;;;;5015579;28;20056;-66
2021/06/19 09:11:32;;;;;;;19.70;4.07;;;;;;;;;;5029828;28;20486;-66
2021/06/19 09:14:00;;;;;;;21.30;4.30;;;;;;;;;;4998839;28;20500;-74
2021/06/19 09:16:26;;;;;;;11.18;4.35;;;;;;;;;;5013981;28;20135;-75
2021/06/19 09:18:51;;;;;;;15.75;4.72;;;;;;;;;;5009207;28;20128;-76
2021/06/19 09:21:25;;;;;;;14.35;4.03;;;;;;;;;;5018499;28;20482;-75
2021/06/19 09:23:51;;;;;;;29.70;4.65;;;;;;;;;;5017020;28;20107;-74
2021/06/19 09:26:18;;;;;;;19.27;4.00;;;;;;;;;;5014764;28;20457;-71
2021/06/19 09:28:58;;;;;;;12.85;3.92;;;;;;;;;;5013384;28;20030;-74
2021/06/19 09:31:33;;;;;;;14.90;4.25;;;;;;;;;;5014739;28;20037;-73
2021/06/19 09:34:00;;;;;;;12.80;4.03;;;;;;;;;;5014682;28;20029;-72
2021/06/19 09:36:37;;;;;;;23.13;5.28;;;;;;;;;;5014938;28;20057;-72
2021/06/19 09:39:04;;;;;;;20.00;4.20;;;;;;;;;;5027511;28;20040;-67
2021/06/19 09:41:51;;;;;;;26.77;3.83;;;;;;;;;;5016079;28;20457;-81
2021/06/19 09:44:31;;;;;;;19.15;4.57;;;;;;;;;;5015312;28;20192;-78
2021/06/19 09:46:57;;;;;;;23.33;4.20;;;;;;;;;;5012196;28;20029;-72
2021/06/19 09:49:28;;;;;;;15.93;3.95;;;;;;;;;;5028182;28;20041;-77
2021/06/19 09:51:54;;;;;;;28.42;8.07;;;;;;;;;;5034078;28;20053;-71
2021/06/19 09:54:20;;;;;;;37.83;4.60;;;;;;;;;;5023723;28;20030;-70
2021/06/19 09:56:47;;;;;;;10.88;3.75;;;;;;;;;;5037953;28;20107;-70
2021/06/19 09:59:20;;;;;;;18.83;4.80;;;;;;;;;;5025916;28;20409;-73
2021/06/19 10:01:47;;;;;;;8.45;4.13;;;;;;;;;;5017621;28;20061;-70
2021/06/19 10:04:16;;;;;;;18.60;3.80;;;;;;;;;;5034526;28;20398;-68
2021/06/19 10:06:42;;;;;;;13.65;4.20;;;;;;;;;;5001390;28;20143;-69
2021/06/19 10:09:09;;;;;;;14.82;3.83;;;;;;;;;;5017002;28;20791;-68
2021/06/19 10:11:34;;;;;;;11.98;3.58;;;;;;;;;;5036341;28;20035;-70
2021/06/19 10:14:01;;;;;;;11.63;4.32;;;;;;;;;;5033822;28;20789;-67
2021/06/19 10:16:28;;;;;;;14.10;3.67;;;;;;;;;;5013709;28;20033;-68
2021/06/19 10:18:54;;;;;;;11.68;3.72;;;;;;;;;;5009841;28;20807;-70
2021/06/19 10:21:21;;;;;;;31.23;3.72;;;;;;;;;;5035567;28;20064;-66
2021/06/19 10:23:47;;;;;;;17.05;3.70;;;;;;;;;;5039061;28;20119;-68
2021/06/19 10:26:13;;;;;;;12.50;4.38;;;;;;;;;;5029208;28;20041;-66
2021/06/19 10:28:43;;;;;;;13.93;4.20;;;;;;;;;;5037055;28;20045;-79
2021/06/19 10:31:11;;;;;;;16.77;4.43;;;;;;;;;;5017089;28;20037;-70
2021/06/19 10:33:37;;;;;;;13.10;3.85;;;;;;;;;;5036459;28;20083;-67
2021/06/19 10:36:06;;;;;;;22.38;3.70;;;;;;;;;;5032133;28;20068;-67
2021/06/19 10:38:44;;;;;;;11.95;3.60;;;;;;;;;;5015325;28;20191;-69
2021/06/19 10:41:10;;;;;;;22.05;4.05;;;;;;;;;;5018731;28;20408;-75
2021/06/19 10:43:54;;;;;;;12.38;3.90;;;;;;;;;;5043642;28;20033;-70
2021/06/19 10:46:25;;;;;;;17.00;4.43;;;;;;;;;;5024662;28;20131;-71
2021/06/19 10:48:54;;;;;;;11.68;3.53;;;;;;;;;;5006385;28;20894;-73
2021/06/19 10:51:21;;;;;;;13.90;3.88;;;;;;;;;;5041971;28;20084;-70
2021/06/19 10:54:07;;;;;;;20.55;4.28;;;;;;;;;;5009191;28;20546;-71
2021/06/19 10:56:52;;;;;;;12.13;3.45;;;;;;;;;;5039489;28;20237;-69
2021/06/19 10:59:18;;;;;;;14.10;3.85;;;;;;;;;;5041547;28;20056;-71
2021/06/19 11:01:43;;;;;;;12.80;3.67;;;;;;;;;;5026039;28;20036;-70
2021/06/19 11:04:28;;;;;;;22.60;4.15;;;;;;;;;;5025723;28;20064;-78
2021/06/19 11:06:53;;;;;;;15.30;3.90;;;;;;;;;;5023526;28;20473;-73
2021/06/19 11:09:26;;;;;;;22.83;3.85;;;;;;;;;;5041200;28;20525;-71
2021/06/19 11:12:02;;;;;;;24.48;4.22;;;;;;;;;;5042589;28;20033;-74
2021/06/19 11:14:47;;;;;;;11.90;3.80;;;;;;;;;;5024536;28;20075;-79
2021/06/19 11:17:22;;;;;;;10.88;3.67;;;;;;;;;;5026192;28;20048;-73
2021/06/19 11:19:51;;;;;;;15.00;3.72;;;;;;;;;;5023714;28;20040;-78
2021/06/19 11:22:23;;;;;;;26.65;4.75;;;;;;;;;;5006972;28;20040;-72
2021/06/19 11:25:07;;;;;;;13.65;3.40;;;;;;;;;;5023277;28;20044;-70
2021/06/19 11:27:52;;;;;;;11.80;3.97;;;;;;;;;;5024487;28;20244;-69
2021/06/19 11:30:33;;;;;;;18.38;4.28;;;;;;;;;;5038915;28;20064;-69
2021/06/19 11:33:15;;;;;;;18.63;3.78;;;;;;;;;;5040698;28;20037;-75
2021/06/19 11:35:41;;;;;;;23.23;4.37;;;;;;;;;;5040569;28;20400;-75
2021/06/19 11:38:07;;;;;;;17.67;4.20;;;;;;;;;;5043085;28;20033;-72
2021/06/19 11:40:33;;;;;;;13.85;4.38;;;;;;;;;;5041284;28;20405;-73
2021/06/19 11:43:02;;;;;;;21.02;4.97;;;;;;;;;;5025244;28;20148;-66
2021/06/19 11:45:28;;;;;;;11.70;3.55;;;;;;;;;;5041475;28;20769;-75
2021/06/19 11:47:59;;;;;;;23.27;3.95;;;;;;;;;;5043102;28;20044;-75
2021/06/19 11:50:30;;;;;;;16.48;3.65;;;;;;;;;;5041767;28;20067;-77
2021/06/19 11:53:26;;;;;;;21.63;3.75;;;;;;;;;;5026690;28;20048;-78
2021/06/19 11:55:52;;;;;;;22.35;4.40;;;;;;;;;;5023967;28;20037;-70
2021/06/19 11:58:17;;;;;;;17.85;4.38;;;;;;;;;;5021819;28;20118;-78
2021/06/19 12:00:53;;;;;;;24.25;4.50;;;;;;;;;;5023986;28;20033;-79
2021/06/19 12:03:24;;;;;;;25.23;4.65;;;;;;;;;;5041065;28;20454;-73
2021/06/19 12:05:50;;;;;;;19.88;3.75;;;;;;;;;;5041545;28;20068;-71
2021/06/19 12:08:25;;;;;;;17.67;4.30;;;;;;;;;;5023745;28;20089;-73
2021/06/19 12:10:51;;;;;;;23.45;4.50;;;;;;;;;;5038405;28;20037;-67
2021/06/19 12:13:17;;;;;;;21.73;4.47;;;;;;;;;;5039283;28;20044;-75
2021/06/19 12:15:52;;;;;;;12.73;4.15;;;;;;;;;;5040203;28;20079;-66
2021/06/19 12:18:18;;;;;;;15.40;4.10;;;;;;;;;;5040096;28;20060;-65
2021/06/19 12:20:54;;;;;;;14.38;3.97;;;;;;;;;;5023195;28;20048;-69
2021/06/19 12:23:20;;;;;;;19.92;4.10;;;;;;;;;;5021983;28;20346;-78
2021/06/19 12:25:45;;;;;;;20.77;5.28;;;;;;;;;;5039993;28;20102;-72
2021/06/19 12:28:19;;;;;;;10.38;3.97;;;;;;;;;;5023039;28;20032;-78
2021/06/19 12:30:57;;;;;;;13.20;4.20;;;;;;;;;;5040198;28;20447;-74
2021/06/19 12:33:26;;;;;;;19.58;3.95;;;;;;;;;;5025544;28;20041;-69
2021/06/19 12:35:53;;;;;;;17.52;4.50;;;;;;;;;;5028999;28;20120;-70
2021/06/19 12:38:19;;;;;;;22.85;5.95;;;;;;;;;;5029346;28;20095;-71
2021/06/19 12:40:45;;;;;;;18.13;6.15;;;;;;;;;;5043538;28;20052;-67
2021/06/19 12:43:10;;;;;;;17.25;5.18;;;;;;;;;;5025999;28;20037;-73
2021/06/19 12:45:43;;;;;;;12.77;4.13;;;;;;;;;;5046006;28;20077;-69
2021/06/19 12:48:22;;;;;;;14.02;3.97;;;;;;;;;;5027444;28;20037;-69
2021/06/19 12:50:52;;;;;;;15.48;4.85;;;;;;;;;;5027800;28;20053;-73
2021/06/19 12:53:18;;;;;;;12.30;4.45;;;;;;;;;;5044400;28;20052;-75
2021/06/19 12:55:58;;;;;;;12.30;4.13;;;;;;;;;;5043780;28;20090;-67
2021/06/19 12:58:32;;;;;;;12.63;4.38;;;;;;;;;;5010311;28;20063;-72
2021/06/19 13:00:57;;;;;;;15.75;4.47;;;;;;;;;;5043122;28;20140;-71
2021/06/19 13:03:44;;;;;;;18.77;4.70;;;;;;;;;;5041832;28;20420;-71
2021/06/19 13:06:17;;;;;;;11.88;3.78;;;;;;;;;;5026761;28;20152;-70
2021/06/19 13:08:53;;;;;;;13.40;3.80;;;;;;;;;;5041973;28;20383;-71
2021/06/19 13:11:20;;;;;;;17.15;4.03;;;;;;;;;;5044389;28;20124;-73
2021/06/19 13:13:47;;;;;;;16.85;4.30;;;;;;;;;;5042303;28;20170;-71
2021/06/19 13:16:14;;;;;;;14.75;4.90;;;;;;;;;;5007623;28;20827;-67
2021/06/19 13:18:56;;;;;;;14.73;4.13;;;;;;;;;;5026538;28;20115;-72
2021/06/19 13:21:21;;;;;;;13.82;4.38;;;;;;;;;;5043833;28;20044;-74
2021/06/19 13:23:47;;;;;;;16.98;4.47;;;;;;;;;;5026152;28;20030;-75
2021/06/19 13:26:34;;;;;;;18.20;4.65;;;;;;;;;;5025603;28;20084;-69
2021/06/19 13:29:05;;;;;;;24.60;4.15;;;;;;;;;;5042083;28;20041;-72
2021/06/19 13:31:38;;;;;;;8.30;3.70;;;;;;;;;;5043441;28;20045;-72
2021/06/19 13:34:04;;;;;;;16.85;4.25;;;;;;;;;;5038475;28;20060;-78
2021/06/19 13:36:50;;;;;;;17.58;4.40;;;;;;;;;;5039460;28;20122;-71
2021/06/19 13:39:17;;;;;;;18.48;4.88;;;;;;;;;;5044174;28;20041;-76
2021/06/19 13:41:45;;;;;;;12.80;4.10;;;;;;;;;;5032277;28;20052;-64
2021/06/19 13:44:35;;;;;;;18.35;4.55;;;;;;;;;;5041417;28;20021;-72
2021/06/19 13:47:02;;;;;;;18.25;4.45;;;;;;;;;;5035050;28;20048;-72
2021/06/19 13:49:28;;;;;;;14.02;4.25;;;;;;;;;;5008453;28;20036;-76
2021/06/19 13:51:56;;;;;;;20.67;4.50;;;;;;;;;;5029708;28;20053;-71
2021/06/19 13:54:24;;;;;;;11.90;4.05;;;;;;;;;;5042603;28;20044;-82
2021/06/19 13:56:52;;;;;;;21.85;4.30;;;;;;;;;;5025832;28;20412;-79
2021/06/19 13:59:18;;;;;;;18.90;4.30;;;;;;;;;;5027617;28;20485;-69
2021/06/19 14:01:44;;;;;;;9.98;4.35;;;;;;;;;;5026145;28;20040;-76
2021/06/19 14:04:10;;;;;;;14.68;4.30;;;;;;;;;;5044141;28;20032;-67
2021/06/19 14:06:36;;;;;;;21.58;4.43;;;;;;;;;;5044031;28;20157;-78
2021/06/19 14:09:02;;;;;;;16.45;4.82;;;;;;;;;;5042905;28;20485;-69
2021/06/19 14:11:29;;;;;;;11.98;4.68;;;;;;;;;;5043069;28;20056;-70
2021/06/19 14:13:55;;;;;;;18.65;4.53;;;;;;;;;;5041008;28;20406;-74
2021/06/19 14:16:21;;;;;;;11.85;3.90;;;;;;;;;;5010736;28;20028;-71
2021/06/19 14:18:47;;;;;;;20.00;4.70;;;;;;;;;;5027092;28;20550;-75
2021/06/19 14:21:14;;;;;;;14.25;4.63;;;;;;;;;;5044535;28;20064;-68
2021/06/19 14:23:41;;;;;;;10.27;4.30;;;;;;;;;;5025049;28;20029;-76
2021/06/19 14:26:09;;;;;;;33.40;4.88;;;;;;;;;;5025858;28;20413;-72
2021/06/19 14:28:38;;;;;;;10.88;3.72;;;;;;;;;;5026598;28;20441;-77
2021/06/19 14:31:05;;;;;;;19.23;4.80;;;;;;;;;;5013827;28;20051;-78